Latest Coastal Weather Observations for Broome

IDW60701

Issued at 4:55 pm WST Tuesday 29 July 2014 (issued every 10 minutes, with the page automatically refreshed every 10 minutes)

About coastal observations | Map of coastal stations | Coastal observations for WA | Marine services | Other Formats
Station Details ID: 003003 Name: BROOME AIRPORT Lat: -17.95 Lon: 122.24 Height: 7.42 m
Data from the previous 72 hours. | See also: Recent months at Broome
Date/Time
WST
Temp

°C
Wind Pressure Rain
since 9am
mm
Weather Cloud Vis
km
Sea
Height
m
Swell
Dir
 
Speed
knots
Gust
knots
hPa Trend Height
m
Period
s
Dir
29/04:30pm 26.6 WNW 7 10 1014.4 - 0.0 - Partly cloudy 10 - - - -
29/04:00pm 30.3 WNW 6 7 1014.2 - 0.0 - Partly cloudy 10 - - - -
29/03:30pm 31.3 W 7 9 1014.0 - 0.0 - Cloudy 10 - - - -
29/03:00pm 32.1 W 6 9 1013.7 R 0.0 Smoke Partly cloudy 40 - - - -
29/02:30pm 33.3 NNE 5 9 1014.0 - 0.0 - Cloudy 10 - - - -
29/02:00pm 32.8 E 7 13 1014.2 - 0.0 - Cloudy 10 - - - -
29/01:30pm 32.9 NE 7 11 1014.4 - 0.0 - Cloudy 10 - - - -
29/01:00pm 32.5 NE 11 18 1014.6 - 0.0 - Partly cloudy 10 - - - -
29/12:30pm 33.5 E 11 13 1014.9 - 0.0 - - 10 - - - -
29/12:00pm 33.9 NE 11 17 1015.3 S 0.0 Smoke Mostly clear 40 - - - -
29/11:30am 33.5 ENE 10 15 1015.9 - 0.0 - - 10 - - - -
29/11:00am 32.2 ENE 8 13 1016.4 - 0.0 - Partly cloudy 10 - - - -
29/10:30am 31.3 E 11 16 1016.8 - 0.0 - Partly cloudy 10 - - - -
29/10:00am 30.5 E 10 15 1017.1 - 0.0 - Partly cloudy 10 - - - -
29/09:30am 28.8 E 9 14 1017.4 - 0.0 - Partly cloudy 10 - - - -
29/09:00am 27.6 ESE 7 9 1017.2 R 0.0 Smoke Mostly cloudy 40 - - - -
29/08:30am 27.2 ESE 9 13 1017.2 - 0.0 - Partly cloudy 10 - - - -
29/08:00am 24.7 E 5 9 1016.8 - 0.0 - Cloudy 10 - - - -
29/07:30am 22.6 ESE 4 6 1016.5 - 0.0 - Cloudy 10 - - - -
29/07:00am 21.7 E 5 6 1016.4 - 0.0 - Cloudy 10 - - - -
29/06:30am 22.1 ESE 4 6 1016.1 - 0.0 - Cloudy 10 - - - -
29/06:00am 22.6 ESE 5 8 1015.7 F 0.0 Fine Mostly cloudy 40 - - - -
29/05:30am 22.2 ESE 5 7 1015.6 - 0.0 - Cloudy 10 - - - -
29/05:00am 21.5 E 4 5 1015.6 - 0.0 - Cloudy 10 - - - -
29/04:30am 22.8 SE 5 6 1015.4 - 0.0 - Cloudy 10 - - - -
29/04:00am 23.4 SSE 7 9 1015.4 - 0.0 - Cloudy 10 - - - -
29/03:30am 22.9 SE 5 7 1015.3 - 0.0 - Cloudy 10 - - - -
29/03:00am 20.3 NE 3 4 1015.3 - 0.0 - Cloudy 10 - - - -
29/02:30am 20.5 CALM 0 0 1015.1 - 0.0 - Cloudy 10 - - - -
29/02:00am 20.5 CALM 0 0 1015.2 - 0.0 - Cloudy 10 - - - -
29/01:30am 20.8 ESE 3 5 1015.5 - 0.0 - Cloudy 10 - - - -
29/01:00am 20.3 N 1 3 1015.5 - 0.0 - Cloudy 10 - - - -
29/12:30am 20.9 NNE 4 8 1015.7 - 0.0 - Cloudy 10 - - - -
29/12:00am 21.2 ESE 0 4 1015.7 - 0.0 - Mostly cloudy 10 - - - -
 
Date/Time
WST
Temp

°C
Wind Pressure Rain
since 9am
mm
Weather Cloud Vis
km
Sea
Height
m
Swell
Dir
 
Speed
knots
Gust
knots
hPa Trend Height
m
Period
s
Dir
28/11:30pm 21.2 CALM 0 0 1015.8 - 0.0 - Cloudy 10 - - - -
28/11:00pm 21.7 SSW 1 6 1015.9 - 0.0 - Cloudy 10 - - - -
28/10:30pm 21.4 NNW 1 4 1016.1 - 0.0 - Cloudy 10 - - - -
28/10:00pm 22.1 SE 2 5 1016.2 - 0.0 - Cloudy 10 - - - -
28/09:30pm 20.9 ESE 1 8 1016.4 - 0.0 - Cloudy 10 - - - -
28/09:00pm 21.3 ESE 2 4 1016.1 R 0.0 Haze Mostly cloudy 30 - - - -
28/08:30pm 21.9 N 4 5 1016.0 - 0.0 - Cloudy 10 - - - -
28/08:00pm 21.4 CALM 0 0 1016.0 - 0.0 - Cloudy 10 - - - -
28/07:30pm 22.4 WNW 4 5 1015.7 - 0.0 - Partly cloudy 10 - - - -
28/07:00pm 22.6 NW 3 4 1015.2 - 0.0 - Partly cloudy 10 - - - -
28/06:30pm 23.2 NW 5 6 1014.9 - 0.0 - Partly cloudy 10 - - - -
28/06:00pm 23.3 NW 4 6 1014.4 F 0.0 Smoke Partly cloudy 35 - - - -
28/05:30pm 24.0 WNW 6 11 1014.2 - 0.0 - Partly cloudy 10 - - - -
28/05:00pm 25.1 WNW 7 10 1014.0 - 0.0 - Partly cloudy 10 - - - -
28/04:30pm 26.0 W 7 11 1013.8 - 0.0 - Cloudy 10 - - - -
28/04:00pm 26.3 W 10 14 1013.7 - 0.0 - Partly cloudy 10 - - - -
28/03:30pm 26.1 W 10 13 1013.7 - 0.0 - Partly cloudy 10 - - - -
28/03:00pm 26.5 W 11 16 1013.6 R 0.0 Smoke Partly cloudy 40 - - - -
28/02:30pm 28.7 WNW 10 15 1013.4 - 0.0 - Partly cloudy 10 - - - -
28/02:00pm 31.2 S 7 11 1013.5 - 0.0 - Partly cloudy 10 - - - -
28/01:30pm 31.4 S 8 11 1013.8 - 0.0 - Partly cloudy 10 - - - -
28/01:00pm 32.1 SSE 8 11 1014.4 - 0.0 - - 10 - - - -
28/12:30pm 31.5 SSE 6 9 1014.9 - 0.0 - - 10 - - - -
28/12:00pm 30.8 S 7 11 1015.4 F 0.0 Fine Partly cloudy 40 - - - -
28/11:30am 29.5 S 7 10 1016.2 - 0.0 - Partly cloudy 10 - - - -
28/11:00am 29.6 SSE 8 10 1016.7 - 0.0 - - 10 - - - -
28/10:30am 28.7 SE 6 8 1017.2 - 0.0 - - 10 - - - -
28/10:00am 26.8 SE 7 9 1017.6 - 0.0 - Partly cloudy 10 - - - -
28/09:30am 25.0 SE 8 10 1017.9 - 0.0 - Partly cloudy 10 - - - -
28/09:05am - - - - - - - - - - - - - -
28/09:00am 23.1 E 7 9 1017.9 F 0.0 Fine Mostly clear 40 - - - -
28/08:30am 22.5 ESE 7 10 1017.6 - 0.0 - Partly cloudy 10 - - - -
28/08:00am 21.5 ESE 6 8 1017.2 - 0.0 - Partly cloudy 10 - - - -
28/07:30am 21.0 SSE 6 9 1017.2 - 0.0 - Partly cloudy 10 - - - -
28/07:00am 19.6 SE 5 8 1017.0 - 0.0 - Partly cloudy 10 - - - -
28/06:30am 19.3 SE 6 8 1017.0 - 0.0 - Partly cloudy 10 - - - -
28/06:00am 18.0 SE 6 9 1016.8 R 0.0 Fine Mostly cloudy 40 - - - -
28/05:30am 14.9 ENE 7 8 1016.7 - 0.0 - Partly cloudy 10 - - - -
28/05:00am 14.9 NE 4 5 1016.0 - 0.0 - - 10 - - - -
28/04:30am 16.9 SE 5 7 1015.9 - 0.0 - - 10 - - - -
28/04:00am 20.4 SSE 5 6 1015.6 - 0.0 - Partly cloudy 10 - - - -
28/03:30am 20.6 SE 6 10 1015.9 - 0.0 - Partly cloudy 10 - - - -
28/03:00am 20.9 S 5 7 1015.5 - 0.0 - Partly cloudy 10 - - - -
28/02:30am 21.5 S 6 8 1015.5 - 0.0 - - 10 - - - -
28/02:00am 21.6 S 5 7 1015.7 - 0.0 - - 10 - - - -
28/01:30am 21.4 S 5 7 1015.9 - 0.0 - - 10 - - - -
28/01:00am 21.8 SSE 5 8 1016.4 - 0.0 - - 10 - - - -
28/12:30am 20.8 SE 6 8 1017.0 - 0.0 - - 10 - - - -
28/12:00am 22.6 S 7 13 1016.8 - 0.0 - - 10 - - - -
 
Date/Time
WST
Temp

°C
Wind Pressure Rain
since 9am
mm
Weather Cloud Vis
km
Sea
Height
m
Swell
Dir
 
Speed
knots
Gust
knots
hPa Trend Height
m
Period
s
Dir
27/11:30pm 21.9 SSW 6 9 1017.1 - 0.0 - - 10 - - - -
27/11:00pm 22.6 SSW 9 11 1017.2 - 0.0 - - 10 - - - -
27/10:30pm 21.7 S 5 6 1017.3 - 0.0 - - 10 - - - -
27/10:00pm 18.1 SSW 3 5 1017.3 - 0.0 - - 10 - - - -
27/09:30pm 17.2 CALM 0 0 1017.4 - 0.0 - - 10 - - - -
27/09:15pm 17.4 CALM 0 0 1017.4 - 0.0 - - 10 - - - -
27/09:00pm 17.9 CALM 0 - 1017.2 F 0.0 Fine Clear 40 - - - -
27/08:30pm 17.6 CALM 0 0 1017.3 - 0.0 - - 10 - - - -
27/08:00pm 18.5 NNE 5 6 1017.1 - 0.0 - - 10 - - - -
27/07:30pm 22.2 WSW 3 5 1016.8 - 0.0 - - 10 - - - -
27/07:00pm 22.1 W 5 6 1016.5 - 0.0 - - 10 - - - -
27/06:30pm 22.2 WSW 4 6 1016.4 - 0.0 - - 10 - - - -
27/06:00pm 22.7 W 5 7 1016.0 R 0.0 Fine Clear 40 - - - -
27/05:30pm 24.1 W 4 6 1016.1 - 0.0 - - 10 - - - -
27/05:00pm 25.9 NW 6 8 1015.8 - 0.0 - - 10 - - - -
27/04:30pm 27.4 W 7 9 1015.5 - 0.0 - - 10 - - - -
27/04:00pm 27.0 W 8 12 1015.3 - 0.0 - - 10 - - - -
27/03:30pm 27.5 W 9 12 1015.0 - 0.0 - - 10 - - - -
27/03:00pm 30.8 WSW 7 8 1014.8 R 0.0 Fine Clear 40 - - - -
27/02:30pm 32.2 SE 7 11 1014.7 - 0.0 - - 10 - - - -
27/02:00pm 31.9 SSE 7 10 1014.9 - 0.0 - - 10 - - - -
27/01:30pm 32.4 NNE 10 15 1015.2 - 0.0 - - 10 - - - -
27/01:00pm 33.1 NNE 8 16 1015.7 - 0.0 - - 10 - - - -
27/12:30pm 32.1 NE 9 14 1016.2 - 0.0 - - 10 - - - -
27/12:00pm 32.2 ENE 10 14 1016.6 F 0.0 Fine Clear 40 - - - -
27/11:30am 30.0 SE 8 10 1017.3 - 0.0 - - 10 - - - -
27/11:00am 28.4 SE 7 10 1017.9 - 0.0 - - 10 - - - -
27/10:30am 27.7 ESE 7 8 1018.4 - 0.0 - - 10 - - - -
27/10:00am 25.7 SE 6 9 1018.7 - 0.0 - - 10 - - - -
27/09:30am 23.2 SE 8 10 1018.9 - 0.0 - - 10 - - - -
27/09:00am 22.5 ESE 7 8 1019.0 F 0.0 Fine Clear 40 - - - -
27/08:30am 21.3 SE 7 9 1019.1 - 0.0 - - 10 - - - -
27/08:00am 20.5 SE 8 10 1019.0 - 0.0 - - 10 - - - -
27/07:30am 19.4 ESE 6 7 1018.6 - 0.0 - - 10 - - - -
27/07:00am 16.3 ESE 5 6 1018.3 - 0.0 - - 10 - - - -
27/06:30am 12.6 ENE 3 4 1018.1 - 0.0 - - 10 - - - -
27/06:00am 12.8 E 3 5 1017.9 F 0.0 Fine Clear 40 - - - -
27/05:30am 12.8 ENE 5 8 1018.0 - 0.0 - - 10 - - - -
27/05:00am 15.8 ESE 4 7 1017.5 - 0.0 - - 10 - - - -
27/04:30am 18.7 S 6 9 1017.2 - 0.0 - - 10 - - - -
27/04:00am 17.2 S 3 6 1017.4 - 0.0 - - 10 - - - -
27/03:30am 16.0 ESE 1 4 1017.6 - 0.0 - - 10 - - - -
27/03:00am 19.3 SE 4 7 1017.7 - 0.0 - - 10 - - - -
27/02:30am 19.7 S 5 7 1017.7 - 0.0 - - 10 - - - -
27/02:00am 20.1 S 5 7 1017.8 - 0.0 - - 10 - - - -
27/01:30am 20.8 S 6 9 1017.8 - 0.0 - - 10 - - - -
27/01:00am 21.0 S 5 7 1018.1 - 0.0 - - 10 - - - -
27/12:30am 21.6 SSW 9 12 1018.1 - 0.0 - - 10 - - - -
27/12:00am 21.4 SSW 8 11 1018.1 - 0.0 - - 10 - - - -
 
Date/Time
WST
Temp

°C
Wind Pressure Rain
since 9am
mm
Weather Cloud Vis
km
Sea
Height
m
Swell
Dir
 
Speed
knots
Gust
knots
hPa Trend Height
m
Period
s
Dir
26/11:30pm 21.1 SSW 8 10 1018.4 - 0.0 - - 10 - - - -
26/11:00pm 21.1 S 5 7 1018.6 - 0.0 - - 10 - - - -
26/10:30pm 21.6 S 7 9 1018.5 - 0.0 - - 10 - - - -
26/10:00pm 21.4 SSW 7 10 1018.5 - 0.0 - - 10 - - - -
26/09:30pm 21.4 SSW 7 9 1018.5 - 0.0 - - 10 - - - -
26/09:00pm 21.5 SSW 5 7 1018.5 F 0.0 Fine Clear 40 - - - -
26/08:30pm 17.9 CALM 0 0 1018.6 - 0.0 - - 10 - - - -
26/08:00pm 18.6 CALM 0 0 1018.6 - 0.0 - - 10 - - - -
26/07:30pm 20.0 CALM 0 0 1018.5 - 0.0 - - 10 - - - -
26/07:00pm 21.5 CALM 0 0 1018.2 - 0.0 - - 10 - - - -
26/06:30pm 22.0 W 6 8 1017.8 - 0.0 - - 10 - - - -
26/06:00pm 22.3 N 5 8 1017.3 R 0.0 Fine Clear 40 - - - -
26/05:30pm 23.4 WSW 10 14 1016.8 - 0.0 - - 10 - - - -
26/05:00pm 24.7 SW 12 15 1016.5 - 0.0 - - 10 - - - -

Other Formats:

Comma delimited format used in spreadsheet applications
http://www.bom.gov.au/fwo/IDW60701/IDW60701.94203.axf

JavaScript Object Notation format (JSON) in row-major order
http://www.bom.gov.au/fwo/IDW60701/IDW60701.94203.json